createdAt,value
2022-10-13T00:00:28.297Z,7.32
2022-10-13T00:02:54.931Z,8.05
2022-10-13T00:05:22.099Z,8.52
2022-10-13T00:07:48.464Z,8.13
2022-10-13T00:10:14.793Z,8.43
2022-10-13T00:12:41.187Z,8.70
2022-10-13T00:15:08.676Z,7.90
2022-10-13T00:17:36.472Z,8.68
2022-10-13T00:20:04.271Z,8.88
2022-10-13T00:22:30.666Z,8.77
2022-10-13T00:24:57.083Z,9.65
2022-10-13T00:27:23.519Z,9.57
2022-10-13T00:29:49.839Z,9.90
2022-10-13T00:32:16.492Z,9.68
2022-10-13T00:34:43.165Z,9.20
2022-10-13T00:37:09.510Z,8.98
2022-10-13T00:39:37.559Z,9.75
2022-10-13T00:42:04.554Z,9.88
2022-10-13T00:45:12.299Z,9.55
2022-10-13T00:47:42.535Z,9.20
2022-10-13T00:50:16.566Z,9.70
2022-10-13T00:52:44.051Z,9.90
2022-10-13T00:55:13.549Z,10.13
2022-10-13T00:57:43.480Z,9.55
2022-10-13T01:00:10.563Z,9.55
2022-10-13T01:02:38.206Z,9.93
2022-10-13T01:05:07.068Z,10.50
2022-10-13T01:07:35.084Z,9.88
2022-10-13T01:10:02.593Z,9.88
2022-10-13T01:12:38.594Z,9.60
2022-10-13T01:15:15.276Z,10.50
2022-10-13T01:17:56.872Z,9.60
2022-10-13T01:20:41.912Z,9.10
2022-10-13T01:23:45.377Z,10.40
2022-10-13T01:27:00.128Z,9.93
2022-10-13T01:29:45.499Z,10.23
2022-10-13T01:32:29.038Z,9.85
2022-10-13T01:35:07.984Z,10.35
2022-10-13T01:37:48.941Z,10.73
2022-10-13T01:40:23.785Z,9.88
2022-10-13T01:43:02.252Z,11.23
2022-10-13T01:45:33.809Z,10.85
2022-10-13T01:48:01.979Z,11.20
2022-10-13T01:50:28.433Z,10.63
2022-10-13T01:52:55.823Z,11.27
2022-10-13T01:55:22.390Z,10.68
2022-10-13T01:57:48.727Z,11.50
2022-10-13T02:00:18.967Z,11.27
2022-10-13T02:02:54.278Z,11.18
2022-10-13T02:05:35.818Z,12.02
2022-10-13T02:08:25.055Z,10.73
2022-10-13T02:11:14.473Z,11.20
2022-10-13T02:13:47.331Z,9.68
2022-10-13T02:16:16.004Z,10.73
2022-10-13T02:18:44.143Z,9.98
2022-10-13T02:21:10.611Z,10.52
2022-10-13T02:23:37.043Z,11.95
2022-10-13T02:26:03.804Z,12.07
2022-10-13T02:28:30.227Z,11.90
2022-10-13T02:30:56.704Z,10.93
2022-10-13T02:33:23.108Z,11.07
2022-10-13T02:35:49.456Z,12.07
2022-10-13T02:38:15.874Z,11.82
2022-10-13T02:40:42.311Z,12.07
2022-10-13T02:43:08.651Z,11.85
2022-10-13T02:45:35.185Z,11.98
2022-10-13T02:48:01.596Z,12.27
2022-10-13T02:50:28.025Z,10.95
2022-10-13T02:52:54.386Z,12.00
2022-10-13T02:55:21.037Z,11.82
2022-10-13T02:57:47.387Z,11.90
2022-10-13T03:00:15.032Z,11.98
2022-10-13T03:02:41.759Z,10.98
2022-10-13T03:05:08.813Z,11.73
2022-10-13T03:07:35.172Z,12.38
2022-10-13T03:10:01.763Z,12.55
2022-10-13T03:12:28.151Z,12.98
2022-10-13T03:14:54.506Z,12.93
2022-10-13T03:17:20.863Z,13.73
2022-10-13T03:19:47.188Z,13.02
2022-10-13T03:22:15.328Z,13.18
2022-10-13T03:24:42.608Z,12.93
2022-10-13T03:27:09.022Z,12.55
2022-10-13T03:29:35.344Z,13.05
2022-10-13T03:32:01.867Z,12.82
2022-10-13T03:34:28.195Z,11.85
2022-10-13T03:36:54.518Z,11.88
2022-10-13T03:39:22.195Z,13.55
2022-10-13T03:41:48.544Z,11.82
2022-10-13T03:44:14.891Z,11.75
2022-10-13T03:46:41.355Z,12.02
2022-10-13T03:49:07.711Z,12.30
2022-10-13T03:51:34.119Z,11.57
2022-10-13T03:54:00.625Z,11.85
2022-10-13T03:56:27.407Z,12.15
2022-10-13T03:58:59.246Z,12.02
2022-10-13T04:01:28.312Z,11.82
2022-10-13T04:03:55.856Z,12.52
2022-10-13T04:06:24.618Z,11.88
2022-10-13T04:08:51.640Z,11.52
2022-10-13T04:11:18.893Z,11.85
2022-10-13T04:13:45.964Z,12.07
2022-10-13T04:16:16.412Z,12.23
2022-10-13T04:18:44.896Z,11.80
2022-10-13T04:21:14.896Z,11.75
2022-10-13T04:23:41.795Z,11.35
2022-10-13T04:26:18.896Z,11.85
2022-10-13T04:28:46.934Z,11.13
2022-10-13T04:31:13.728Z,11.20
2022-10-13T04:33:40.309Z,11.95
2022-10-13T04:36:09.276Z,12.10
2022-10-13T04:38:35.653Z,12.52
2022-10-13T04:41:04.027Z,11.32
2022-10-13T04:43:31.019Z,10.93
2022-10-13T04:46:08.635Z,11.80
2022-10-13T04:48:35.066Z,11.20
2022-10-13T04:51:08.952Z,11.68
2022-10-13T04:53:35.918Z,12.05
2022-10-13T04:56:04.781Z,11.98
2022-10-13T04:58:31.885Z,11.45
2022-10-13T05:00:58.623Z,11.82
2022-10-13T05:03:25.969Z,11.65
2022-10-13T05:05:53.248Z,12.18
2022-10-13T05:08:19.927Z,12.30
2022-10-13T05:10:57.610Z,12.13
2022-10-13T05:13:25.323Z,11.23
2022-10-13T05:15:51.767Z,11.43
2022-10-13T05:18:18.217Z,11.45
2022-10-13T05:20:44.614Z,12.30
2022-10-13T05:23:10.953Z,11.93
2022-10-13T05:25:38.034Z,10.43
2022-10-13T05:28:06.558Z,12.00
2022-10-13T05:30:33.076Z,11.38
2022-10-13T05:32:59.688Z,12.98
2022-10-13T05:35:26.741Z,11.88
2022-10-13T05:37:53.253Z,12.52
2022-10-13T05:40:22.467Z,10.65
2022-10-13T05:42:50.731Z,11.10
2022-10-13T05:45:18.261Z,11.95
2022-10-13T05:47:44.634Z,11.38
2022-10-13T05:50:11.072Z,11.10
2022-10-13T05:52:37.849Z,11.85
2022-10-13T05:55:07.497Z,11.13
2022-10-13T05:57:38.126Z,11.38
2022-10-13T06:00:08.967Z,10.52
2022-10-13T06:03:03.226Z,9.85
2022-10-13T06:05:32.669Z,11.23
2022-10-13T06:08:00.058Z,10.95
2022-10-13T06:10:26.725Z,11.20
2022-10-13T06:12:53.054Z,12.15
2022-10-13T06:15:19.406Z,12.07
2022-10-13T06:17:45.856Z,11.73
2022-10-13T06:20:12.698Z,12.00
2022-10-13T06:22:39.208Z,12.00
2022-10-13T06:25:06.854Z,11.15
2022-10-13T06:27:33.474Z,11.98
2022-10-13T06:29:59.875Z,12.07
2022-10-13T06:32:26.952Z,11.73
2022-10-13T06:34:53.834Z,11.27
2022-10-13T06:37:23.440Z,11.93
2022-10-13T06:39:53.640Z,11.43
2022-10-13T06:42:20.326Z,12.40
2022-10-13T06:44:46.881Z,10.88
2022-10-13T06:47:13.419Z,11.20
2022-10-13T06:49:39.949Z,12.07
2022-10-13T06:52:06.349Z,12.77
2022-10-13T06:54:32.840Z,11.05
2022-10-13T06:56:59.197Z,12.13
2022-10-13T06:59:27.609Z,11.48
2022-10-13T07:01:54.419Z,11.65
2022-10-13T07:04:20.799Z,10.88
2022-10-13T07:06:47.151Z,11.75
2022-10-13T07:09:13.663Z,11.50
2022-10-13T07:11:40.201Z,11.73
2022-10-13T07:14:06.537Z,11.82
2022-10-13T07:16:32.864Z,10.98
2022-10-13T07:18:59.231Z,11.60
2022-10-13T07:21:25.644Z,11.70
2022-10-13T07:23:52.137Z,11.35
2022-10-13T07:26:18.554Z,11.80
2022-10-13T07:28:45.212Z,10.95
2022-10-13T07:31:15.403Z,11.05
2022-10-13T07:33:44.183Z,10.30
2022-10-13T07:36:11.347Z,11.68
2022-10-13T07:38:38.235Z,11.30
2022-10-13T07:41:06.331Z,11.93
2022-10-13T07:43:33.026Z,10.63
2022-10-13T07:46:01.577Z,10.60
2022-10-13T07:48:28.478Z,10.38
2022-10-13T07:50:54.906Z,10.38
2022-10-13T07:53:21.352Z,11.02
2022-10-13T07:55:47.872Z,10.35
2022-10-13T07:58:14.214Z,10.38
2022-10-13T08:00:40.602Z,11.52
2022-10-13T08:03:07.102Z,11.23
2022-10-13T08:05:33.632Z,11.65
2022-10-13T08:07:59.957Z,10.70
2022-10-13T08:10:26.382Z,11.27
2022-10-13T08:12:52.775Z,10.57
2022-10-13T08:15:19.117Z,11.10
2022-10-13T08:17:47.967Z,11.20
2022-10-13T08:20:14.335Z,10.40
2022-10-13T08:22:40.663Z,10.95
2022-10-13T08:25:07.475Z,11.18
2022-10-13T08:27:50.191Z,10.85
2022-10-13T08:30:18.535Z,10.38
2022-10-13T08:32:45.026Z,10.07
2022-10-13T08:35:11.677Z,10.88
2022-10-13T08:37:38.028Z,10.45
2022-10-13T08:40:04.730Z,11.43
2022-10-13T08:42:31.097Z,9.90
2022-10-13T08:48:17.335Z,9.23
2022-10-13T08:50:48.763Z,9.80
2022-10-13T08:53:28.062Z,10.07
2022-10-13T08:56:13.927Z,11.05
2022-10-13T08:58:42.370Z,10.50
2022-10-13T09:01:08.637Z,10.38
2022-10-13T09:03:42.080Z,10.27
2022-10-13T09:06:16.972Z,10.75
2022-10-13T09:08:52.494Z,9.35
2022-10-13T09:11:18.895Z,9.55
2022-10-13T09:13:45.294Z,9.85
2022-10-13T09:16:11.930Z,10.65
2022-10-13T09:18:38.659Z,10.52
2022-10-13T09:21:21.811Z,9.25
2022-10-13T09:23:53.959Z,9.27
2022-10-13T09:26:23.399Z,9.55
2022-10-13T09:28:52.082Z,10.32
2022-10-13T09:31:18.447Z,10.48
2022-10-13T09:33:46.406Z,10.32
2022-10-13T09:36:15.756Z,11.07
2022-10-13T09:39:06.486Z,10.70
2022-10-13T09:41:33.995Z,11.00
2022-10-13T09:44:12.477Z,9.82
2022-10-13T09:46:47.731Z,10.18
2022-10-13T09:49:44.850Z,10.45
2022-10-13T09:52:14.142Z,9.63
2022-10-13T09:54:40.626Z,10.48
2022-10-13T09:57:25.740Z,11.25
2022-10-13T09:59:58.751Z,9.35
2022-10-13T10:02:34.289Z,9.63
2022-10-13T10:05:07.520Z,10.05
2022-10-13T10:07:34.157Z,9.68
2022-10-13T10:10:13.341Z,10.02
2022-10-13T10:12:43.171Z,10.35
2022-10-13T10:15:46.532Z,10.00
2022-10-13T10:18:19.092Z,9.43
2022-10-13T10:20:52.352Z,9.43
2022-10-13T10:23:21.734Z,9.40
2022-10-13T10:25:57.938Z,9.38
2022-10-13T10:28:33.114Z,9.85
2022-10-13T10:31:14.815Z,10.35
2022-10-13T10:34:18.897Z,9.77
2022-10-13T10:37:15.212Z,9.30
2022-10-13T10:39:48.436Z,10.18
2022-10-13T10:42:42.434Z,10.05
2022-10-13T10:45:24.013Z,9.57
2022-10-13T10:48:04.641Z,8.95
2022-10-13T10:50:33.577Z,9.38
2022-10-13T10:53:27.831Z,9.32
2022-10-13T10:56:12.656Z,8.43
2022-10-13T10:59:00.753Z,9.68
2022-10-13T11:01:45.982Z,9.15
2022-10-13T11:04:30.773Z,9.13
2022-10-13T11:06:57.288Z,8.88
2022-10-13T11:09:41.767Z,8.63
2022-10-13T11:12:46.038Z,9.15
2022-10-13T11:15:24.551Z,8.98
2022-10-13T11:17:51.635Z,8.57
2022-10-13T11:20:21.006Z,8.98
2022-10-13T11:22:59.596Z,8.75
2022-10-13T11:25:39.923Z,9.38
2022-10-13T11:28:21.571Z,8.80
2022-10-13T11:30:50.737Z,8.25
2022-10-13T11:33:50.138Z,8.48
2022-10-13T11:36:35.877Z,8.73
2022-10-13T11:39:25.502Z,8.68
2022-10-13T11:42:05.564Z,8.18
2022-10-13T11:44:54.402Z,9.23
2022-10-13T11:47:55.382Z,8.73
2022-10-13T11:50:48.491Z,8.13
2022-10-13T11:53:19.003Z,8.45
2022-10-13T11:56:01.277Z,8.75
2022-10-13T11:58:35.169Z,8.25
2022-10-13T12:01:08.919Z,8.00
2022-10-13T12:03:41.030Z,8.05
2022-10-13T12:06:34.170Z,8.20
2022-10-13T12:09:07.442Z,8.57
2022-10-13T12:11:37.523Z,7.95
2022-10-13T12:14:08.158Z,7.63
2022-10-13T12:16:34.553Z,7.75
2022-10-13T12:19:20.572Z,7.68
2022-10-13T12:21:52.067Z,7.50
2022-10-13T12:24:21.300Z,7.97
2022-10-13T12:26:47.840Z,7.32
2022-10-13T12:29:15.490Z,7.35
2022-10-13T12:31:44.794Z,7.90
2022-10-13T12:34:28.258Z,6.50
2022-10-13T12:37:01.293Z,6.78
2022-10-13T12:39:30.785Z,6.53
2022-10-13T12:41:59.034Z,6.82
2022-10-13T12:44:29.043Z,7.00
2022-10-13T12:47:00.424Z,5.93
2022-10-13T12:49:29.221Z,6.40
2022-10-13T12:52:06.298Z,6.70
2022-10-13T12:54:34.851Z,6.57
2022-10-13T12:57:05.581Z,6.03
2022-10-13T12:59:32.329Z,6.20
2022-10-13T13:02:01.962Z,6.28
2022-10-13T13:04:46.736Z,6.13
2022-10-13T13:07:26.586Z,5.95
2022-10-13T13:10:15.244Z,5.95
2022-10-13T13:12:42.386Z,6.40
2022-10-13T13:15:27.353Z,6.65
2022-10-13T13:17:58.998Z,6.20
2022-10-13T13:20:31.696Z,6.55
2022-10-13T13:22:58.311Z,6.45
2022-10-13T13:25:25.021Z,5.97
2022-10-13T13:27:51.837Z,5.65
2022-10-13T13:30:21.205Z,5.80
2022-10-13T13:32:47.671Z,5.53
2022-10-13T13:35:14.104Z,5.47
2022-10-13T13:37:44.491Z,5.07
2022-10-13T13:40:16.927Z,5.85
2022-10-13T13:42:43.342Z,5.65
2022-10-13T13:45:17.387Z,5.28
2022-10-13T13:47:44.147Z,4.68
2022-10-13T13:50:20.702Z,5.93
2022-10-13T13:52:47.683Z,5.75
2022-10-13T13:55:14.181Z,5.55
2022-10-13T13:57:42.743Z,5.40
2022-10-13T14:00:12.168Z,5.50
2022-10-13T14:02:38.557Z,5.65
2022-10-13T14:05:05.769Z,6.15
2022-10-13T14:07:32.104Z,5.25
2022-10-13T14:10:01.813Z,5.93
2022-10-13T14:12:33.245Z,5.18
2022-10-13T14:14:59.875Z,5.18
2022-10-13T14:17:27.498Z,5.70
2022-10-13T14:19:54.116Z,4.80
2022-10-13T14:22:21.543Z,4.85
2022-10-13T14:24:48.193Z,4.85
2022-10-13T14:27:14.820Z,5.18
2022-10-13T14:29:41.187Z,6.00
2022-10-13T14:32:07.582Z,5.65
2022-10-13T14:34:34.058Z,6.03
2022-10-13T14:37:00.450Z,5.68
2022-10-13T14:39:26.870Z,5.38
2022-10-13T14:41:53.345Z,5.28
2022-10-13T14:44:19.703Z,5.60
2022-10-13T14:46:46.069Z,6.07
2022-10-13T14:49:12.724Z,5.82
2022-10-13T14:51:39.090Z,5.78
2022-10-13T14:54:06.899Z,5.30
2022-10-13T14:56:34.091Z,5.85
2022-10-13T14:59:02.448Z,5.75
2022-10-13T15:01:29.331Z,6.13
2022-10-13T15:03:56.127Z,5.97
2022-10-13T15:06:25.102Z,5.85
2022-10-13T15:08:52.209Z,5.82
2022-10-13T15:11:21.232Z,5.85
2022-10-13T15:13:47.881Z,6.13
2022-10-13T15:16:28.598Z,5.53
2022-10-13T15:18:55.682Z,5.15
2022-10-13T15:21:23.143Z,5.72
2022-10-13T15:23:49.954Z,5.80
2022-10-13T15:26:18.775Z,6.20
2022-10-13T15:28:48.010Z,6.15
2022-10-13T15:31:15.750Z,5.70
2022-10-13T15:33:46.951Z,6.28
2022-10-13T15:36:13.892Z,5.40
2022-10-13T15:38:40.466Z,5.90
2022-10-13T15:41:07.845Z,5.68
2022-10-13T15:43:34.834Z,5.43
2022-10-13T15:46:07.443Z,5.82
2022-10-13T15:48:34.726Z,5.10
2022-10-13T15:51:01.990Z,5.70
2022-10-13T15:53:29.690Z,6.18
2022-10-13T15:55:56.079Z,6.05
2022-10-13T15:58:22.627Z,6.75
2022-10-13T16:00:49.002Z,6.47
2022-10-13T16:03:17.426Z,7.32
2022-10-13T16:05:46.971Z,6.95
2022-10-13T16:08:14.386Z,7.30
2022-10-13T16:10:42.393Z,6.88
2022-10-13T16:13:12.329Z,6.97
2022-10-13T16:15:38.836Z,6.78
2022-10-13T16:18:05.282Z,6.68
2022-10-13T16:20:34.854Z,6.85
2022-10-13T16:23:01.638Z,6.75
2022-10-13T16:25:28.055Z,7.22
2022-10-13T16:27:54.385Z,7.78
2022-10-13T16:30:20.735Z,6.80
2022-10-13T16:32:47.100Z,7.03
2022-10-13T16:35:14.945Z,7.40
2022-10-13T16:37:41.347Z,7.28
2022-10-13T16:40:08.462Z,7.68
2022-10-13T16:42:34.789Z,7.25
2022-10-13T16:45:01.711Z,7.75
2022-10-13T16:47:28.047Z,7.80
2022-10-13T16:49:55.015Z,8.18
2022-10-13T16:52:21.421Z,7.85
2022-10-13T16:54:47.944Z,7.38
2022-10-13T16:57:14.353Z,7.43
2022-10-13T16:59:41.017Z,7.05
2022-10-13T17:02:14.459Z,7.97
2022-10-13T17:04:41.385Z,7.70
2022-10-13T17:07:08.171Z,8.15
2022-10-13T17:09:34.811Z,7.70
2022-10-13T17:12:02.100Z,8.23
2022-10-13T17:14:28.459Z,7.60
2022-10-13T17:16:57.714Z,7.97
2022-10-13T17:19:24.595Z,8.43
2022-10-13T17:21:50.984Z,8.60
2022-10-13T17:24:18.186Z,8.85
2022-10-13T17:26:44.660Z,9.80
2022-10-13T17:29:11.094Z,11.82
2022-10-13T17:31:37.450Z,12.68
2022-10-13T17:34:03.814Z,13.30
2022-10-13T17:36:34.216Z,14.02
2022-10-13T17:39:06.571Z,14.23
2022-10-13T17:41:33.465Z,13.82
2022-10-13T17:43:59.985Z,10.93
2022-10-13T17:46:39.339Z,10.00
2022-10-13T17:49:09.400Z,10.68
2022-10-13T17:51:35.798Z,9.93
2022-10-13T17:54:02.491Z,10.02
2022-10-13T17:56:29.390Z,9.55
2022-10-13T17:58:56.675Z,9.50
2022-10-13T18:01:26.715Z,10.45
2022-10-13T18:03:58.637Z,10.02
2022-10-13T18:06:25.489Z,10.30
2022-10-13T18:08:52.361Z,11.10
2022-10-13T18:11:21.827Z,11.27
2022-10-13T18:13:48.790Z,11.65
2022-10-13T18:16:18.381Z,11.88
2022-10-13T18:18:45.881Z,11.10
2022-10-13T18:21:14.556Z,11.10
2022-10-13T18:23:41.923Z,12.65
2022-10-13T18:26:20.007Z,15.13
2022-10-13T18:28:47.907Z,12.70
2022-10-13T18:31:23.374Z,12.77
2022-10-13T18:33:49.735Z,12.30
2022-10-13T18:36:23.899Z,12.38
2022-10-13T18:38:51.631Z,12.10
2022-10-13T18:41:19.118Z,12.05
2022-10-13T18:43:45.533Z,12.02
2022-10-13T18:46:11.996Z,12.48
2022-10-13T18:48:38.986Z,12.80
2022-10-13T18:51:07.412Z,12.75
2022-10-13T18:53:38.204Z,12.68
2022-10-13T18:56:07.779Z,12.45
2022-10-13T18:58:34.344Z,13.05
2022-10-13T19:01:07.698Z,13.40
2022-10-13T19:03:36.039Z,13.40
2022-10-13T19:06:04.656Z,12.88
2022-10-13T19:08:31.058Z,13.93
2022-10-13T19:10:57.527Z,15.30
2022-10-13T19:13:26.060Z,15.88
2022-10-13T19:15:59.145Z,17.35
2022-10-13T19:18:25.482Z,16.60
2022-10-13T19:20:51.863Z,15.60
2022-10-13T19:23:18.375Z,13.93
2022-10-13T19:25:44.943Z,14.70
2022-10-13T19:28:11.803Z,14.63
2022-10-13T19:30:39.266Z,13.90
2022-10-13T19:33:07.204Z,13.93
2022-10-13T19:36:00.296Z,14.10
2022-10-13T19:38:26.690Z,14.30
2022-10-13T19:40:53.125Z,12.52
2022-10-13T19:43:19.869Z,12.98
2022-10-13T19:45:59.621Z,14.82
2022-10-13T19:48:26.778Z,13.63
2022-10-13T19:50:53.215Z,13.75
2022-10-13T19:53:19.738Z,14.23
2022-10-13T19:55:47.436Z,13.65
2022-10-13T19:58:16.075Z,13.77
2022-10-13T20:00:46.426Z,13.95
2022-10-13T20:03:14.171Z,14.43
2022-10-13T20:05:41.007Z,13.32
2022-10-13T20:08:09.499Z,13.93
2022-10-13T20:10:40.478Z,12.90
2022-10-13T20:13:08.451Z,13.07
2022-10-13T20:15:39.582Z,14.02
2022-10-13T20:18:07.047Z,13.43
2022-10-13T20:20:34.625Z,13.07
2022-10-13T20:23:01.011Z,13.95
2022-10-13T20:25:27.604Z,13.95
2022-10-13T20:27:54.101Z,13.55
2022-10-13T20:30:20.481Z,13.30
2022-10-13T20:32:46.834Z,13.52
2022-10-13T20:35:13.475Z,13.65
2022-10-13T20:37:39.831Z,13.48
2022-10-13T20:40:06.743Z,14.25
2022-10-13T20:42:33.082Z,13.13
2022-10-13T20:44:59.438Z,14.32
2022-10-13T20:47:25.959Z,13.68
2022-10-13T20:49:52.503Z,14.70
2022-10-13T20:52:19.006Z,13.63
2022-10-13T20:54:45.348Z,13.43
2022-10-13T20:57:11.771Z,14.57
2022-10-13T20:59:38.240Z,13.65
2022-10-13T21:02:04.597Z,14.20
2022-10-13T21:04:31.114Z,14.25
2022-10-13T21:06:57.476Z,14.85
2022-10-13T21:09:23.881Z,14.38
2022-10-13T21:11:50.239Z,15.90
2022-10-13T21:14:16.637Z,15.40
2022-10-13T21:16:43.192Z,14.00
2022-10-13T21:19:09.698Z,15.52
2022-10-13T21:21:36.574Z,15.13
2022-10-13T21:24:05.501Z,16.05
2022-10-13T21:26:32.738Z,15.93
2022-10-13T21:28:59.505Z,14.88
2022-10-13T21:31:26.268Z,15.40
2022-10-13T21:33:53.571Z,15.00
2022-10-13T21:36:22.648Z,15.52
2022-10-13T21:38:52.370Z,15.27
2022-10-13T21:41:19.001Z,14.15
2022-10-13T21:43:45.372Z,14.75
2022-10-13T21:46:12.797Z,15.65
2022-10-13T21:48:39.255Z,15.13
2022-10-13T21:51:20.872Z,15.43
2022-10-13T21:53:55.793Z,16.83
2022-10-13T21:56:25.567Z,15.20
2022-10-13T21:58:52.723Z,15.65
2022-10-13T22:01:19.997Z,15.68
2022-10-13T22:03:47.620Z,16.25
2022-10-13T22:06:19.092Z,16.38
2022-10-13T22:08:48.060Z,15.30
2022-10-13T22:11:16.472Z,15.70
2022-10-13T22:13:43.191Z,17.02
2022-10-13T22:16:13.158Z,15.55
2022-10-13T22:18:39.569Z,15.48
2022-10-13T22:21:08.231Z,16.80
2022-10-13T22:23:34.686Z,16.83
2022-10-13T22:26:01.046Z,16.88
2022-10-13T22:28:27.516Z,16.50
2022-10-13T22:30:53.963Z,16.13
2022-10-13T22:33:20.887Z,17.20
2022-10-13T22:35:47.512Z,17.77
2022-10-13T22:38:14.747Z,15.90
2022-10-13T22:40:41.896Z,17.42
2022-10-13T22:43:08.831Z,17.50
2022-10-13T22:45:36.326Z,17.05
2022-10-13T22:48:02.895Z,17.45
2022-10-13T22:50:29.487Z,17.42
2022-10-13T22:52:55.849Z,16.13
2022-10-13T22:55:22.391Z,18.50
2022-10-13T22:57:48.781Z,17.85
2022-10-13T23:00:15.811Z,17.08
2022-10-13T23:02:42.151Z,18.73
2022-10-13T23:05:08.677Z,16.30
2022-10-13T23:07:35.036Z,18.75
2022-10-13T23:10:01.411Z,18.98
2022-10-13T23:12:27.739Z,18.65
2022-10-13T23:14:54.193Z,18.83
2022-10-13T23:17:20.817Z,19.92
2022-10-13T23:19:47.358Z,19.30
2022-10-13T23:22:13.876Z,19.45
2022-10-13T23:24:40.199Z,19.17
2022-10-13T23:27:06.558Z,20.10
2022-10-13T23:29:32.905Z,20.52
2022-10-13T23:31:59.270Z,19.80
2022-10-13T23:34:25.735Z,22.17
2022-10-13T23:36:52.079Z,19.80
2022-10-13T23:39:18.559Z,20.63
2022-10-13T23:41:45.074Z,19.60
2022-10-13T23:44:11.431Z,20.23
2022-10-13T23:46:37.750Z,19.73
2022-10-13T23:49:04.176Z,19.95
2022-10-13T23:51:30.703Z,18.38
2022-10-13T23:53:57.095Z,18.70
2022-10-13T23:56:23.700Z,19.08
2022-10-13T23:58:50.718Z,19.92
